Time;durP1;ratioP1;P1;durP2;ratioP2;P2;SDS_P1;SDS_P2;PMS_P1;PMS_P2;Temp;Humidity;BMP_temperature;BMP_pressure;BME280_temperature;BME280_humidity;BME280_pressure;Samples;Min_cycle;Max_cycle;Signal;HPM_P1;HPM_P2
2021/11/08 05:31:44;;;;;;;96.80;34.80;;;;;;;7.21;100.00;95450.72;4971762;28;20054;-77
2021/11/08 05:34:10;;;;;;;55.55;24.95;;;;;;;7.33;100.00;95485.69;4971864;28;20026;-76
2021/11/08 05:36:35;;;;;;;61.10;25.98;;;;;;;7.38;100.00;95483.53;4966371;28;20041;-77
2021/11/08 05:39:02;;;;;;;63.58;27.02;;;;;;;7.44;100.00;95498.44;4975179;28;20145;-77
2021/11/08 05:41:28;;;;;;;120.63;30.75;;;;;;;7.64;100.00;95517.25;4990827;28;20153;-77
2021/11/08 05:43:54;;;;;;;90.53;28.02;;;;;;;7.92;100.00;95519.75;4970258;28;20105;-77
2021/11/08 05:46:20;;;;;;;114.60;28.30;;;;;;;7.92;100.00;95493.16;4971343;28;20030;-77
2021/11/08 05:48:48;;;;;;;110.43;31.17;;;;;;;7.76;100.00;95493.75;4988365;28;20030;-77
2021/11/08 05:51:14;;;;;;;103.53;29.17;;;;;;;8.13;100.00;95511.78;4973738;28;20543;-77
2021/11/08 05:53:44;;;;;;;160.07;29.15;;;;;;;7.82;100.00;95471.75;4988417;28;20037;-77
2021/11/08 05:56:17;;;;;;;190.77;34.97;;;;;;;7.57;100.00;95505.88;4958997;28;20458;-77
2021/11/08 06:50:29;;;;;;;18.95;16.95;;;;;;;16.60;76.35;94835.34;4973015;28;20570;-80
2021/11/08 06:53:01;;;;;;;19.90;16.05;;;;;;;15.75;79.47;94833.06;4981642;28;20041;-79
2021/11/08 06:55:27;;;;;;;24.80;18.45;;;;;;;15.31;82.79;94839.72;4951186;28;20114;-80
2021/11/08 06:58:00;;;;;;;20.65;18.50;;;;;;;15.00;84.63;94839.56;4965978;28;20031;-79
2021/11/08 07:00:26;;;;;;;20.80;17.15;;;;;;;15.49;83.47;94822.69;4974449;28;20022;-82
2021/11/08 07:02:51;;;;;;;23.02;17.98;;;;;;;15.47;83.46;94822.88;4985792;28;20042;-81
2021/11/08 07:05:17;;;;;;;22.48;17.17;;;;;;;15.71;82.84;94818.81;4964596;28;20035;-81
2021/11/08 07:07:42;;;;;;;20.20;18.20;;;;;;;15.17;84.95;94819.88;4981773;28;20045;-80
2021/11/08 07:10:08;;;;;;;20.83;18.67;;;;;;;15.01;85.91;94842.97;4984007;28;20034;-79
2021/11/08 07:12:33;;;;;;;20.90;18.67;;;;;;;14.60;88.47;94827.50;4967629;28;20442;-82
2021/11/08 07:14:59;;;;;;;20.33;18.25;;;;;;;14.75;88.71;94830.72;4935694;28;20023;-80
2021/11/08 07:17:24;;;;;;;22.23;19.35;;;;;;;14.82;87.72;94844.56;4952587;28;20062;-80
2021/11/08 07:19:50;;;;;;;21.27;18.92;;;;;;;15.97;83.34;94839.63;4985751;28;20030;-80
2021/11/08 07:22:15;;;;;;;19.65;16.95;;;;;;;18.03;73.08;94836.13;4981827;28;20034;-84
2021/11/08 07:24:41;;;;;;;17.00;15.20;;;;;;;17.75;73.15;94837.47;4986089;28;20026;-80
2021/11/08 07:27:07;;;;;;;17.48;15.75;;;;;;;19.67;66.44;94823.28;4986062;28;20129;-82
2021/11/08 07:29:36;;;;;;;15.13;13.63;;;;;;;20.28;63.40;94820.09;4967883;28;20030;-80
2021/11/08 07:32:02;;;;;;;17.73;15.80;;;;;;;21.34;57.92;94809.63;4983823;28;20022;-81
2021/11/08 07:34:28;;;;;;;23.67;19.50;;;;;;;20.69;58.43;94806.66;4965218;28;20039;-81
2021/11/08 07:36:53;;;;;;;24.42;18.90;;;;;;;20.81;59.56;94810.03;4982224;28;20038;-80
2021/11/08 07:39:19;;;;;;;22.75;20.45;;;;;;;21.61;56.36;94814.22;4957467;28;20499;-81
2021/11/08 07:41:44;;;;;;;22.55;19.27;;;;;;;22.90;52.83;94812.63;4967152;28;20030;-79
2021/11/08 07:44:10;;;;;;;22.63;19.95;;;;;;;22.98;52.33;94820.91;4975534;28;20027;-80
2021/11/08 07:46:35;;;;;;;22.52;18.08;;;;;;;23.88;49.46;94806.00;4998896;28;20026;-81
2021/11/08 07:49:01;;;;;;;22.98;20.02;;;;;;;23.75;49.28;94817.03;4979819;28;20031;-80
2021/11/08 07:51:26;;;;;;;22.33;20.00;;;;;;;23.86;49.48;94802.78;4997629;28;20450;-81
2021/11/08 07:53:52;;;;;;;23.85;20.25;;;;;;;23.31;51.34;94809.28;4978682;28;20677;-80
2021/11/08 07:56:17;;;;;;;24.20;18.35;;;;;;;24.48;48.12;94793.03;4995270;28;20084;-81
2021/11/08 07:58:43;;;;;;;20.85;16.75;;;;;;;24.66;47.94;94797.81;4981553;28;20092;-80
2021/11/08 08:01:09;;;;;;;20.23;17.95;;;;;;;23.40;51.33;94794.59;4995024;28;20495;-80
2021/11/08 08:03:35;;;;;;;19.55;17.65;;;;;;;23.78;50.38;94793.50;4977737;28;20041;-81
2021/11/08 08:06:01;;;;;;;19.50;17.45;;;;;;;23.71;51.15;94797.41;4987696;28;20034;-82
2021/11/08 08:08:26;;;;;;;19.33;17.40;;;;;;;23.77;50.17;94785.81;4987259;28;20514;-81
2021/11/08 08:10:53;;;;;;;19.70;17.48;;;;;;;23.83;50.21;94798.00;4972314;28;20156;-82
2021/11/08 08:13:25;;;;;;;21.17;18.80;;;;;;;24.14;49.25;94799.78;4971768;28;20026;-82
2021/11/08 08:15:51;;;;;;;39.78;20.92;;;;;;;24.18;48.70;94792.91;4989975;28;20109;-83
2021/11/08 08:18:16;;;;;;;16.30;14.55;;;;;;;22.94;51.36;94803.16;4985265;28;20578;-78
2021/11/08 08:20:42;;;;;;;17.17;13.68;;;;;;;23.85;48.90;94799.38;4978647;28;20044;-78
2021/11/08 08:23:07;;;;;;;14.70;13.30;;;;;;;23.02;49.99;94794.78;4970495;28;20036;-79
2021/11/08 08:25:33;;;;;;;15.95;12.43;;;;;;;23.57;49.37;94805.78;4987415;28;20077;-81
2021/11/08 08:27:58;;;;;;;13.15;11.85;;;;;;;24.42;47.88;94795.91;4988531;28;20026;-81
2021/11/08 08:30:24;;;;;;;13.73;12.15;;;;;;;23.94;47.94;94795.16;4967408;28;20038;-81
2021/11/08 08:32:50;;;;;;;14.32;12.93;;;;;;;23.98;49.19;94800.75;4968428;28;20035;-81
2021/11/08 08:35:15;;;;;;;14.93;13.50;;;;;;;24.85;46.27;94810.63;4985619;28;20077;-80
2021/11/08 08:37:41;;;;;;;16.83;12.85;;;;;;;24.91;45.84;94806.94;4985809;28;20030;-79
2021/11/08 08:40:07;;;;;;;18.02;13.50;;;;;;;24.48;46.31;94798.31;4985728;28;20026;-79
2021/11/08 08:42:33;;;;;;;18.80;13.02;;;;;;;24.71;46.13;94797.06;4959035;28;20575;-80
2021/11/08 08:44:58;;;;;;;13.63;12.40;;;;;;;24.51;46.48;94812.91;4986754;28;20026;-80
2021/11/08 08:47:24;;;;;;;17.10;12.82;;;;;;;25.22;45.15;94808.53;4986749;28;20038;-83
2021/11/08 08:49:50;;;;;;;18.65;12.70;;;;;;;25.68;44.71;94814.66;4954489;28;20117;-81
2021/11/08 08:52:16;;;;;;;13.95;12.25;;;;;;;25.55;44.30;94809.88;4952570;28;20121;-81
2021/11/08 08:54:41;;;;;;;14.43;13.02;;;;;;;25.35;44.73;94818.63;4984641;28;20031;-80
2021/11/08 08:57:07;;;;;;;15.85;12.95;;;;;;;25.08;45.12;94802.94;4985292;28;20602;-80
2021/11/08 08:59:33;;;;;;;15.90;13.63;;;;;;;25.42;44.63;94807.75;4967853;28;20578;-81
2021/11/08 09:01:59;;;;;;;22.02;13.63;;;;;;;26.29;42.47;94794.06;4984259;28;20613;-80
2021/11/08 09:04:26;;;;;;;18.13;13.60;;;;;;;26.27;42.99;94804.13;4969834;28;20049;-81
2021/11/08 09:06:51;;;;;;;15.35;13.55;;;;;;;25.85;43.81;94807.16;4981180;28;20149;-80
2021/11/08 09:09:17;;;;;;;17.75;13.20;;;;;;;26.19;42.84;94805.50;4985218;28;20520;-80
2021/11/08 09:11:42;;;;;;;14.02;12.52;;;;;;;25.98;42.97;94805.78;4970445;28;20038;-81
2021/11/08 09:14:08;;;;;;;18.67;13.25;;;;;;;25.49;44.40;94793.19;4987180;28;20685;-80
2021/11/08 09:16:35;;;;;;;16.15;12.93;;;;;;;26.39;42.80;94795.88;4968792;28;20030;-80
2021/11/08 09:19:00;;;;;;;16.20;13.43;;;;;;;25.76;42.84;94789.41;4983691;28;20026;-78
2021/11/08 09:21:29;;;;;;;16.92;12.98;;;;;;;26.65;41.92;94794.69;4970869;28;20038;-80
2021/11/08 09:23:58;;;;;;;18.60;12.43;;;;;;;26.80;41.76;94791.13;4972507;28;20034;-81
2021/11/08 09:26:23;;;;;;;;;;;;;;;27.02;40.83;94784.34;4950169;28;20191;-80
2021/11/08 09:28:49;;;;;;;15.05;12.02;;;;;;;26.31;41.77;94778.63;4989514;28;19925;-80
2021/11/08 09:31:15;;;;;;;15.30;11.35;;;;;;;26.82;41.35;94778.38;4972384;28;20058;-80
2021/11/08 09:33:40;;;;;;;12.73;10.95;;;;;;;27.08;40.77;94769.16;4950308;28;20120;-80
2021/11/08 09:36:08;;;;;;;15.07;11.48;;;;;;;26.31;42.10;94780.47;4948324;28;20018;-81
2021/11/08 09:38:36;;;;;;;17.23;11.55;;;;;;;26.59;41.56;94763.84;4967597;28;20089;-81
2021/11/08 09:41:01;;;;;;;16.58;11.48;;;;;;;25.66;42.17;94761.81;4965711;28;20031;-81
2021/11/08 09:43:27;;;;;;;21.83;12.57;;;;;;;26.35;42.07;94762.94;4966600;28;20469;-80
2021/11/08 09:45:53;;;;;;;12.20;10.18;;;;;;;25.88;42.81;94747.44;4950658;28;20023;-82
2021/11/08 09:48:19;;;;;;;16.23;11.32;;;;;;;26.37;41.68;94755.47;4949536;28;20042;-81
2021/11/08 09:50:45;;;;;;;14.15;11.00;;;;;;;27.07;40.52;94751.59;4950669;28;20033;-81
2021/11/08 09:53:10;;;;;;;12.70;11.00;;;;;;;26.65;41.14;94758.22;4956354;28;20113;-80
2021/11/08 09:55:36;;;;;;;16.05;11.38;;;;;;;26.72;41.60;94750.75;4984775;28;20026;-81
2021/11/08 09:58:02;;;;;;;17.17;13.18;;;;;;;25.79;41.40;94744.53;4985621;28;20530;-81
2021/11/08 10:00:46;;;;;;;18.38;12.60;;;;;;;26.98;40.88;94738.09;4988801;28;20041;-80
2021/11/08 10:03:30;;;;;;;19.77;12.15;;;;;;;25.36;43.45;94739.84;4985571;28;20474;-80
2021/11/08 10:05:57;;;;;;;15.77;12.43;;;;;;;23.02;49.04;94737.44;4984504;28;20105;-79
2021/11/08 10:08:26;;;;;;;15.23;10.00;;;;;;;22.66;50.79;94750.59;4985501;28;20379;-81
2021/11/08 10:10:53;;;;;;;;;;;;;;;22.29;50.37;94743.34;4960018;28;20026;-80
2021/11/08 10:13:24;;;;;;;17.45;11.93;;;;;;;21.34;54.30;94735.84;4984845;28;19918;-80
2021/11/08 10:15:52;;;;;;;18.30;11.82;;;;;;;21.48;53.35;94731.78;4968346;28;20027;-80
2021/11/08 10:18:18;;;;;;;15.30;11.63;;;;;;;21.69;53.21;94732.06;4985082;28;20034;-80
2021/11/08 10:20:47;;;;;;;17.63;11.32;;;;;;;22.19;52.56;94716.03;4980106;28;20041;-80
2021/11/08 10:23:15;;;;;;;17.70;10.73;;;;;;;22.27;52.15;94718.25;4949560;28;20049;-79
2021/11/08 10:25:42;;;;;;;16.67;11.30;;;;;;;21.43;53.39;94723.81;4967809;28;20035;-79
2021/11/08 10:28:15;;;;;;;19.05;10.95;;;;;;;20.90;54.14;94713.78;4964600;28;20089;-80
2021/11/08 10:30:41;;;;;;;15.48;10.93;;;;;;;20.86;54.66;94669.75;4950898;28;20449;-81
2021/11/08 10:33:16;;;;;;;14.25;10.57;;;;;;;21.97;52.58;94708.97;4966867;28;20061;-80
2021/11/08 10:35:46;;;;;;;16.83;11.57;;;;;;;22.07;53.10;94716.19;4947581;28;20026;-79
2021/11/08 10:38:15;;;;;;;19.05;12.32;;;;;;;21.71;53.24;94712.31;4963389;28;20566;-78
2021/11/08 10:40:43;;;;;;;20.63;11.52;;;;;;;21.87;52.99;94710.66;4931494;28;20039;-78
2021/11/08 10:43:10;;;;;;;12.73;10.77;;;;;;;21.80;52.44;94707.44;4964370;28;20054;-77
2021/11/08 10:45:46;;;;;;;14.70;10.65;;;;;;;21.44;53.21;94712.25;4963849;28;20113;-77
2021/11/08 10:48:11;;;;;;;17.45;10.55;;;;;;;21.07;55.05;94708.53;4964127;28;20034;-77
2021/11/08 10:50:40;;;;;;;12.00;9.25;;;;;;;21.22;51.95;94697.44;4949135;28;20095;-77
2021/11/08 10:53:06;;;;;;;14.13;8.75;;;;;;;21.61;50.11;94687.69;4949356;28;20042;-77
2021/11/08 10:55:32;;;;;;;14.20;9.05;;;;;;;21.65;50.45;94694.03;4950069;28;20035;-77
2021/11/08 10:58:11;;;;;;;18.17;9.30;;;;;;;22.02;49.25;94692.41;4957398;28;20041;-77
2021/11/08 11:00:50;;;;;;;15.50;8.70;;;;;;;22.00;50.31;94694.47;4984194;28;20030;-77
2021/11/08 11:03:16;;;;;;;12.05;9.20;;;;;;;22.32;50.78;94690.06;4967264;28;20042;-78
2021/11/08 11:05:43;;;;;;;16.80;8.95;;;;;;;22.33;50.44;94691.66;4968602;28;20117;-77
2021/11/08 11:08:14;;;;;;;14.43;9.77;;;;;;;22.43;49.66;94683.84;4999600;28;20036;-77
2021/11/08 11:10:43;;;;;;;22.02;13.85;;;;;;;21.38;50.55;94686.84;4967825;28;20037;-77
2021/11/08 13:51:07;;;;;;;18.73;8.10;;;;;;;20.92;52.48;94684.59;4988672;28;20049;-72
2021/11/08 13:53:34;;;;;;;17.33;8.85;;;;;;;20.86;52.95;94680.31;4983306;28;20050;-72
2021/11/08 13:56:10;;;;;;;19.42;8.98;;;;;;;20.63;54.53;94683.09;4986266;28;20515;-72
2021/11/08 13:58:36;;;;;;;50.33;11.68;;;;;;;20.43;55.78;94679.09;4970128;28;20030;-72
2021/11/08 14:01:07;;;;;;;125.80;17.00;;;;;;;20.51;55.92;94685.81;4970040;28;20030;-71
2021/11/08 14:03:43;;;;;;;34.05;10.63;;;;;;;20.26;58.45;94688.78;4968746;28;20704;-72
2021/11/08 14:06:08;;;;;;;17.63;10.13;;;;;;;20.31;59.34;94688.09;5013843;28;20027;-73
2021/11/08 14:08:43;;;;;;;25.17;10.10;;;;;;;20.17;60.02;94689.38;4953417;28;20663;-76
2021/11/08 14:11:10;;;;;;;18.80;10.05;;;;;;;20.08;60.63;94682.91;4988620;28;20503;-76
2021/11/08 14:13:37;;;;;;;24.25;10.00;;;;;;;20.05;60.94;94684.19;4992273;28;20578;-76
2021/11/08 14:16:05;;;;;;;15.77;9.35;;;;;;;19.95;60.97;94689.25;4978823;28;20030;-77
2021/11/08 14:18:31;;;;;;;22.27;10.13;;;;;;;19.86;61.09;94685.41;4993174;28;20093;-78
2021/11/08 14:21:13;;;;;;;16.77;9.45;;;;;;;19.75;62.16;94687.03;4978550;28;20030;-75
2021/11/08 14:23:40;;;;;;;15.75;9.82;;;;;;;19.66;62.77;94696.31;4991198;28;20573;-74
2021/11/08 14:26:12;;;;;;;20.80;10.50;;;;;;;19.53;63.80;94693.94;4980699;28;20076;-76
2021/11/08 14:28:37;;;;;;;18.30;10.00;;;;;;;19.45;64.08;94700.38;4983085;28;20523;-76
2021/11/08 14:31:04;;;;;;;12.98;9.07;;;;;;;19.44;63.93;94698.78;4985373;28;20050;-78
2021/11/08 14:33:29;;;;;;;20.42;11.70;;;;;;;19.36;64.33;94700.94;4987018;28;20511;-76
2021/11/08 14:35:55;;;;;;;25.00;11.07;;;;;;;19.26;64.67;94693.66;4970001;28;20114;-74
2021/11/08 14:38:36;;;;;;;18.95;11.32;;;;;;;19.08;65.92;94696.38;4953701;28;20076;-77
2021/11/08 14:41:08;;;;;;;21.67;11.25;;;;;;;18.94;66.26;94685.31;4968937;28;20030;-75
2021/11/08 14:43:34;;;;;;;18.67;11.65;;;;;;;18.84;67.25;94700.06;4989770;28;20053;-75
2021/11/08 14:46:01;;;;;;;17.48;11.13;;;;;;;18.76;67.32;94710.88;4962204;28;20084;-78
2021/11/08 14:48:28;;;;;;;18.90;10.60;;;;;;;18.56;68.81;94705.94;4985018;28;20045;-76
2021/11/08 14:51:09;;;;;;;15.70;9.93;;;;;;;18.44;64.53;94699.84;4984817;28;20026;-76
2021/11/08 14:53:37;;;;;;;15.88;9.07;;;;;;;18.29;64.31;94708.16;4984475;28;20034;-77
2021/11/08 14:56:27;;;;;;;14.43;8.43;;;;;;;18.27;61.40;94706.75;4986400;28;20455;-77
2021/11/08 14:59:02;;;;;;;14.30;8.35;;;;;;;18.12;61.60;94707.16;4984170;28;20035;-76
2021/11/08 15:01:28;;;;;;;12.80;7.60;;;;;;;17.95;62.38;94708.03;4986139;28;20027;-76
2021/11/08 15:04:05;;;;;;;9.80;7.80;;;;;;;17.97;61.50;94712.03;4986618;28;20036;-76
2021/11/08 15:06:31;;;;;;;9.25;7.47;;;;;;;17.82;62.39;94709.78;4984954;28;20545;-76
2021/11/08 15:09:11;;;;;;;12.88;7.35;;;;;;;17.66;62.93;94705.13;4987368;28;20100;-75
2021/11/08 15:11:38;;;;;;;11.85;7.57;;;;;;;17.38;64.37;94697.78;5000257;28;20607;-75
2021/11/08 15:14:07;;;;;;;9.27;7.50;;;;;;;17.40;64.02;94698.34;4984158;28;20507;-77
2021/11/08 15:16:52;;;;;;;19.52;7.60;;;;;;;17.28;65.38;94701.94;4985482;28;20438;-76
2021/11/08 15:19:19;;;;;;;12.05;7.75;;;;;;;17.09;66.47;94708.97;4980742;28;20487;-76
2021/11/08 15:21:56;;;;;;;14.35;10.82;;;;;;;16.86;69.07;94708.78;4961341;28;20396;-75
2021/11/08 15:24:30;;;;;;;14.00;9.07;;;;;;;16.82;70.97;94703.19;4984942;28;20026;-76
2021/11/08 15:26:57;;;;;;;20.00;9.13;;;;;;;16.91;69.58;94706.34;4968925;28;20022;-78
2021/11/08 15:29:25;;;;;;;17.77;8.68;;;;;;;16.72;69.89;94715.16;4968158;28;20598;-76
2021/11/08 15:31:51;;;;;;;15.07;9.15;;;;;;;16.59;69.90;94717.88;4968006;28;20057;-78
2021/11/08 15:34:16;;;;;;;18.63;8.68;;;;;;;16.64;68.64;94718.03;4985132;28;20503;-74
2021/11/08 15:36:54;;;;;;;17.00;9.30;;;;;;;16.55;68.79;94711.47;4984296;28;20488;-74
2021/11/08 15:39:31;;;;;;;16.48;8.50;;;;;;;16.40;69.38;94711.75;4968593;28;20034;-74
2021/11/08 15:41:56;;;;;;;24.23;13.52;;;;;;;15.88;75.21;94719.91;4989596;28;20031;-75
2021/11/08 15:44:22;;;;;;;22.50;13.35;;;;;;;15.51;79.37;94721.50;4986323;28;20092;-75
2021/11/08 15:46:48;;;;;;;21.30;11.75;;;;;;;15.58;80.76;94737.91;4984301;28;20050;-75
2021/11/08 15:49:13;;;;;;;46.85;29.70;;;;;;;15.44;81.83;94733.72;4983997;28;20040;-75
2021/11/08 15:51:41;;;;;;;54.25;32.17;;;;;;;15.28;82.53;94745.41;4985700;28;20038;-75
2021/11/08 15:54:10;;;;;;;110.97;68.63;;;;;;;15.06;84.02;94742.22;4968653;28;20022;-75
2021/11/08 15:56:38;;;;;;;104.07;57.28;;;;;;;15.36;82.05;94742.56;4986092;28;20030;-74
2021/11/08 15:59:05;;;;;;;109.70;59.22;;;;;;;15.22;83.09;94747.03;4983723;28;20027;-75
2021/11/08 16:01:31;;;;;;;140.93;73.63;;;;;;;15.27;82.73;94747.22;4985465;28;20038;-74
2021/11/08 16:03:57;;;;;;;153.63;81.68;;;;;;;15.22;82.74;94756.66;4987917;28;20038;-75
2021/11/08 16:06:22;;;;;;;99.05;48.28;;;;;;;15.08;82.04;94755.09;4972015;28;20030;-75
2021/11/08 16:08:47;;;;;;;69.50;32.92;;;;;;;15.03;82.22;94763.50;4971138;28;20026;-75
2021/11/08 16:11:13;;;;;;;62.97;29.65;;;;;;;14.92;82.30;94768.53;4970603;28;20030;-75
2021/11/08 16:13:39;;;;;;;62.92;31.15;;;;;;;14.94;82.27;94767.34;4987736;28;20030;-76
2021/11/08 16:16:04;;;;;;;60.65;32.35;;;;;;;14.98;81.55;94763.31;4987788;28;20073;-75
2021/11/08 16:18:30;;;;;;;63.42;31.92;;;;;;;14.92;82.08;94764.13;4968011;28;20027;-75
2021/11/08 16:20:56;;;;;;;92.10;51.30;;;;;;;14.83;83.36;94781.00;4986766;28;20026;-75
2021/11/08 16:23:22;;;;;;;127.22;74.20;;;;;;;14.76;83.37;94780.19;4987497;28;20480;-76
2021/11/08 16:25:48;;;;;;;124.38;68.10;;;;;;;14.68;83.41;94777.75;4987952;28;20026;-75
2021/11/08 16:28:14;;;;;;;115.43;64.88;;;;;;;14.83;83.05;94788.81;4987519;28;20092;-75
2021/11/08 16:30:40;;;;;;;82.40;44.78;;;;;;;14.86;82.50;94785.00;4971350;28;20113;-74
2021/11/08 16:33:24;;;;;;;68.70;35.40;;;;;;;14.77;82.91;94807.84;4971047;28;20022;-75
2021/11/08 16:35:49;;;;;;;78.43;36.42;;;;;;;14.71;83.85;94804.22;4987863;28;20105;-75
2021/11/08 16:38:26;;;;;;;112.97;57.10;;;;;;;14.67;84.47;94821.25;4986881;28;20125;-75
2021/11/08 16:40:53;;;;;;;108.60;54.03;;;;;;;14.74;84.36;94826.50;4952190;28;20031;-75
2021/11/08 16:43:23;;;;;;;43.58;24.63;;;;;;;14.96;81.08;94840.94;4999481;28;20034;-76
2021/11/08 16:45:56;;;;;;;22.98;13.10;;;;;;;14.98;79.57;94849.41;4986824;28;20058;-75
2021/11/08 16:48:24;;;;;;;17.85;12.27;;;;;;;15.08;79.35;94852.41;4982045;28;20042;-76
2021/11/08 16:50:51;;;;;;;19.55;10.80;;;;;;;15.17;78.13;94842.56;5001389;28;20526;-74
2021/11/08 16:53:18;;;;;;;15.23;11.18;;;;;;;15.18;77.85;94850.22;4968802;28;20031;-75
2021/11/08 16:55:44;;;;;;;18.92;12.65;;;;;;;14.78;81.15;94864.22;4985241;28;20038;-74
2021/11/08 16:58:14;;;;;;;24.02;12.65;;;;;;;14.80;81.65;94870.03;4953445;28;20068;-74
2021/11/08 17:00:40;;;;;;;30.05;12.85;;;;;;;14.68;82.81;94879.44;4971194;28;20029;-75
2021/11/08 17:03:06;;;;;;;24.77;15.27;;;;;;;14.74;82.72;94878.63;4986166;28;20053;-75
2021/11/08 17:05:44;;;;;;;23.20;14.98;;;;;;;14.59;82.95;94878.00;4987055;28;20019;-75
2021/11/08 17:08:14;;;;;;;29.88;18.13;;;;;;;14.65;83.08;94880.63;4995069;28;20030;-74
2021/11/08 17:13:27;;;;;;;22.30;14.32;;;;;;;14.54;84.41;94896.06;4986384;28;20041;-74
2021/11/08 17:15:56;;;;;;;27.52;15.55;;;;;;;14.66;83.56;94910.13;4968449;28;20608;-75
2021/11/08 17:18:21;;;;;;;40.83;23.60;;;;;;;14.65;83.56;94916.31;4995088;28;20037;-74
2021/11/08 17:20:49;;;;;;;38.78;23.45;;;;;;;14.56;84.16;94913.09;5005012;28;20030;-74
2021/11/08 17:23:16;;;;;;;35.05;20.55;;;;;;;14.53;83.91;94917.91;4988748;28;20053;-75
2021/11/08 17:25:41;;;;;;;29.27;17.55;;;;;;;14.49;83.83;94927.09;5006608;28;20581;-74
2021/11/08 17:28:07;;;;;;;37.40;18.80;;;;;;;14.52;84.06;94924.09;4967775;28;20030;-75
2021/11/08 17:30:33;;;;;;;34.80;21.52;;;;;;;14.42;84.46;94924.47;4986450;28;20034;-74
2021/11/08 17:32:59;;;;;;;37.83;24.42;;;;;;;14.35;84.57;94923.66;4984940;28;20049;-75
2021/11/08 17:35:27;;;;;;;34.88;21.30;;;;;;;14.30;84.81;94933.00;4984479;28;20038;-74
2021/11/08 17:37:52;;;;;;;33.25;20.10;;;;;;;14.26;85.00;94932.56;4983961;28;20124;-74
2021/11/08 17:40:18;;;;;;;29.65;19.02;;;;;;;14.18;85.11;94933.56;4985623;28;20073;-74
2021/11/08 17:42:44;;;;;;;38.00;19.30;;;;;;;14.23;85.08;94932.97;4986538;28;20128;-74
2021/11/08 17:45:10;;;;;;;27.90;18.17;;;;;;;14.06;85.05;94932.47;4985552;28;20058;-74
2021/11/08 17:47:35;;;;;;;28.08;18.35;;;;;;;14.08;85.35;94940.91;4983471;28;20033;-74
2021/11/08 17:50:07;;;;;;;32.55;18.08;;;;;;;14.12;85.19;94936.13;4968868;28;20030;-74
2021/11/08 17:52:34;;;;;;;25.98;18.00;;;;;;;14.02;85.76;94939.09;4984300;28;20034;-74
2021/11/08 17:55:02;;;;;;;36.15;19.25;;;;;;;14.04;85.57;94936.28;4969489;28;20096;-74
2021/11/08 17:57:29;;;;;;;33.10;20.45;;;;;;;14.02;85.54;94936.47;4984718;28;20065;-74
2021/11/08 17:59:55;;;;;;;34.75;20.60;;;;;;;13.90;85.45;94917.16;4986281;28;20030;-74
2021/11/08 18:02:21;;;;;;;45.05;27.60;;;;;;;13.81;87.00;94936.53;4984081;28;20085;-74
2021/11/08 18:04:46;;;;;;;48.38;28.80;;;;;;;13.73;87.87;94940.13;4984828;28;20022;-74
2021/11/08 18:07:12;;;;;;;36.50;20.80;;;;;;;13.76;87.15;94946.72;4986323;28;20435;-74
2021/11/08 18:09:37;;;;;;;38.88;22.80;;;;;;;13.87;86.75;94946.19;4968267;28;20026;-74
2021/11/08 18:12:03;;;;;;;36.42;22.45;;;;;;;13.85;87.47;94939.56;4985232;28;20109;-74
2021/11/08 18:14:29;;;;;;;41.72;25.65;;;;;;;13.73;87.61;94944.50;4984233;28;20104;-74
2021/11/08 18:16:56;;;;;;;34.38;24.08;;;;;;;13.79;87.07;94954.16;4985320;28;20022;-75
2021/11/08 18:19:26;;;;;;;34.65;22.23;;;;;;;13.73;87.33;94960.13;4986135;28;20023;-75
2021/11/08 18:22:39;;;;;;;34.22;21.88;;;;;;;13.77;86.82;94956.16;4985971;28;20030;-74
2021/11/08 18:25:03;;;;;;;28.55;17.80;;;;;;;13.61;87.77;94967.63;4960681;28;20054;-74
2021/11/08 18:27:30;;;;;;;30.73;18.45;;;;;;;13.63;88.09;94968.25;4952232;28;20062;-74
2021/11/08 18:29:55;;;;;;;28.27;17.00;;;;;;;13.65;88.00;94971.47;4965506;28;20035;-74
2021/11/08 18:32:21;;;;;;;25.35;17.15;;;;;;;13.51;88.44;94974.16;4978491;28;20030;-74
2021/11/08 18:34:47;;;;;;;30.23;19.17;;;;;;;13.57;88.74;94986.44;4952871;28;20117;-74
2021/11/08 18:37:14;;;;;;;32.70;19.95;;;;;;;13.52;88.72;94976.56;4984594;28;20121;-74
2021/11/08 18:39:39;;;;;;;30.70;19.63;;;;;;;13.52;88.54;94988.78;4983270;28;20059;-74
2021/11/08 18:42:06;;;;;;;24.88;17.90;;;;;;;13.50;88.80;94990.78;4968270;28;20635;-74
2021/11/08 18:44:31;;;;;;;27.08;18.27;;;;;;;13.39;88.96;94986.09;4984062;28;20033;-74
2021/11/08 18:46:57;;;;;;;29.90;19.63;;;;;;;13.48;89.08;94984.97;4984991;28;20035;-74
2021/11/08 18:49:23;;;;;;;34.15;24.05;;;;;;;13.42;89.04;94994.28;4983896;28;20627;-74
2021/11/08 18:51:49;;;;;;;46.80;30.40;;;;;;;13.41;89.27;94989.28;4985588;28;20034;-74
2021/11/08 18:54:16;;;;;;;46.80;31.13;;;;;;;13.35;88.98;94979.63;4985717;28;20034;-74
2021/11/08 18:56:42;;;;;;;49.63;32.80;;;;;;;13.32;89.09;94970.41;4968634;28;20104;-74
2021/11/08 18:59:12;;;;;;;50.22;32.80;;;;;;;13.11;89.63;94976.41;4984718;28;20101;-73
2021/11/08 19:01:47;;;;;;;45.70;29.00;;;;;;;13.08;90.33;94982.00;4968398;28;20395;-74
2021/11/08 19:04:17;;;;;;;41.92;27.77;;;;;;;12.85;91.57;94998.69;4985572;28;20061;-74
2021/11/08 19:09:15;;;;;;;33.15;20.88;;;;;;;12.65;92.53;95003.66;4968805;28;20041;-74
2021/11/08 19:11:42;;;;;;;30.95;19.65;;;;;;;12.61;92.71;95007.63;4948994;28;20030;-74
2021/11/08 19:14:12;;;;;;;28.55;20.42;;;;;;;12.58;92.91;95003.59;4964448;28;20039;-74
2021/11/08 19:16:38;;;;;;;31.73;21.17;;;;;;;12.63;92.40;95006.47;4981784;28;20114;-74
2021/11/08 19:19:05;;;;;;;32.75;20.70;;;;;;;12.60;92.34;95008.59;4948251;28;20117;-75
2021/11/08 19:21:33;;;;;;;29.20;18.73;;;;;;;12.48;92.66;95010.06;4981265;28;20030;-74
2021/11/08 19:23:59;;;;;;;25.38;18.33;;;;;;;12.46;92.41;95012.81;4968321;28;20031;-74
2021/11/08 19:26:26;;;;;;;24.23;18.15;;;;;;;12.38;92.78;95017.31;4984216;28;20030;-74
2021/11/08 19:28:55;;;;;;;23.40;16.83;;;;;;;12.18;93.48;95017.06;4984127;28;20096;-74
2021/11/08 19:31:20;;;;;;;23.35;17.00;;;;;;;12.32;93.23;95025.84;4983429;28;20027;-74
2021/11/08 19:34:01;;;;;;;22.90;16.63;;;;;;;12.13;93.87;95025.38;4984268;28;20046;-74
2021/11/08 19:39:11;;;;;;;23.70;16.92;;;;;;;12.01;94.72;95020.78;4996265;28;20104;-74
2021/11/08 19:41:38;;;;;;;25.05;18.30;;;;;;;11.93;95.37;95033.84;4979049;28;20030;-74
2021/11/08 19:44:04;;;;;;;23.65;16.88;;;;;;;11.88;95.53;95031.78;4993342;28;20101;-74
2021/11/08 19:46:30;;;;;;;23.40;18.00;;;;;;;11.99;95.42;95039.16;4954810;28;20134;-74
2021/11/08 19:48:55;;;;;;;32.05;18.23;;;;;;;11.98;95.49;95041.91;4986768;28;20125;-74
2021/11/08 19:51:21;;;;;;;24.42;18.63;;;;;;;11.85;95.48;95037.31;4987548;28;20468;-74
2021/11/08 19:53:46;;;;;;;26.83;18.80;;;;;;;11.79;96.16;95022.47;4985112;28;20653;-74
2021/11/08 19:56:14;;;;;;;29.15;18.27;;;;;;;11.88;95.98;95039.56;4987864;28;20038;-73
2021/11/08 19:58:39;;;;;;;26.45;18.08;;;;;;;11.70;96.57;95044.28;4988100;28;20031;-73
2021/11/08 20:01:05;;;;;;;23.25;18.10;;;;;;;11.73;96.62;95046.53;4986478;28;20034;-74
2021/11/08 20:03:31;;;;;;;32.35;25.05;;;;;;;11.78;96.65;95048.59;4970994;28;20050;-73
2021/11/08 20:05:57;;;;;;;40.30;29.33;;;;;;;11.87;96.34;95042.34;4970808;28;20416;-73
2021/11/08 20:08:23;;;;;;;44.92;32.80;;;;;;;11.76;96.38;95050.53;4986194;28;20026;-72
2021/11/08 20:10:49;;;;;;;40.45;27.80;;;;;;;11.73;96.23;95046.53;4986892;28;20037;-74
2021/11/08 20:13:31;;;;;;;35.92;23.67;;;;;;;11.64;96.80;95050.13;4970519;28;20026;-74
2021/11/08 20:15:57;;;;;;;34.22;23.00;;;;;;;11.52;97.02;95056.72;4965889;28;20026;-74
2021/11/08 20:18:23;;;;;;;34.15;23.90;;;;;;;11.39;97.73;95056.50;4985893;28;20399;-74
2021/11/08 20:20:51;;;;;;;29.38;20.30;;;;;;;10.98;100.00;95059.31;4986476;28;20030;-74
2021/11/08 20:23:18;;;;;;;32.03;18.50;;;;;;;10.99;100.00;95060.94;4969174;28;20037;-74
2021/11/08 20:25:45;;;;;;;31.02;19.92;;;;;;;11.00;100.00;95057.38;4987721;28;20062;-74
2021/11/08 20:28:17;;;;;;;29.17;19.75;;;;;;;10.78;100.00;95058.16;4969109;28;20042;-74
2021/11/08 20:30:49;;;;;;;27.27;21.73;;;;;;;10.74;100.00;95056.06;4985759;28;20038;-74